Wendt, South Dakota
Current Conditions -  °F | °C
As of 7:23 AM on Wednesday 26 Nov 2014 (Local Time) from KPIR Reporting Station
Overcast Overcast  
Wind Chill:   Ceiling: 2800
Heat Index: 19°   Visibility: 10mi
Dew Point: 14°   Wind: 20mph
Humidity: 81%   Direction: 10°N
Pressure: 30.26"   Gusts: NA
Location:  44.3693°N, 100.04°W
Report Text: KPIR 261323Z AUTO 01017KT 10SM SCT014 OVC028 M07/M10 A3026 RMK AO2 T10721100
Loading
Personal Weather Stations






























Interactive Weather Map New forecast layout! Learn more

10-Day Weather Forecast

Advertisements
Track Severe Weather on mobile